AXM6268 WBKW-WBKK
Flight info
| Callsign | AXM6268 |
|---|---|
| Flight time | 0h 38m |
| Altitude | 22000 |
| Route | AKDEM W425 MAKSU MAKSU2B |
| Aircraft | A320/M-SDE3FGHIRWY/LB1 |
Departure
| Time | 2026-05-05 12:42 |
|---|---|
| Airport | Tawau Airport (WBKW) |
Arrival
| Time | 2026-05-05 13:20 |
|---|---|
| Airport | Kota Kinabalu International Airport (WBKK) |
| Time | Latitude | Longitude | Altitude | Speed | Heading |
|---|---|---|---|---|---|
| 2026-05-05 12:11 | 4.31343 | 118.11544 | 46 ft | 0 kts | 327° |
| 2026-05-05 12:31 | 4.31331 | 118.11552 | 46 ft | 2 kts | 323° |
| 2026-05-05 12:31 | 4.31318 | 118.11562 | 44 ft | 2 kts | 320° |
| 2026-05-05 12:31 | 4.31305 | 118.11572 | 44 ft | 2 kts | 314° |
| 2026-05-05 12:31 | 4.31294 | 118.11585 | 44 ft | 2 kts | 295° |
| 2026-05-05 12:32 | 4.31291 | 118.11601 | 44 ft | 2 kts | 250° |
| 2026-05-05 12:32 | 4.31295 | 118.11611 | 45 ft | 1 kts | 238° |
| 2026-05-05 12:32 | 4.31296 | 118.11612 | 45 ft | 0 kts | 238° |
| 2026-05-05 12:34 | 4.31294 | 118.11609 | 45 ft | 2 kts | 238° |
| 2026-05-05 12:34 | 4.31288 | 118.11600 | 45 ft | 1 kts | 238° |
| 2026-05-05 12:34 | 4.31287 | 118.11598 | 45 ft | 1 kts | 238° |
| 2026-05-05 12:35 | 4.31284 | 118.11593 | 46 ft | 3 kts | 238° |
| 2026-05-05 12:35 | 4.31282 | 118.11590 | 42 ft | 4 kts | 238° |
| 2026-05-05 12:35 | 4.31268 | 118.11566 | 46 ft | 4 kts | 238° |
| 2026-05-05 12:36 | 4.31256 | 118.11547 | 46 ft | 3 kts | 238° |
| 2026-05-05 12:36 | 4.31247 | 118.11532 | 46 ft | 2 kts | 238° |
| 2026-05-05 12:36 | 4.31229 | 118.11509 | 46 ft | 0 kts | 219° |
| 2026-05-05 12:36 | 4.31219 | 118.11502 | 46 ft | 7 kts | 211° |
| 2026-05-05 12:37 | 4.31140 | 118.11528 | 46 ft | 14 kts | 147° |
| 2026-05-05 12:37 | 4.31053 | 118.11582 | 46 ft | 15 kts | 147° |
| 2026-05-05 12:37 | 4.31011 | 118.11666 | 45 ft | 15 kts | 69° |
| 2026-05-05 12:37 | 4.31067 | 118.11759 | 47 ft | 16 kts | 59° |
| 2026-05-05 12:38 | 4.31128 | 118.11862 | 47 ft | 18 kts | 60° |
| 2026-05-05 12:38 | 4.31199 | 118.11979 | 46 ft | 21 kts | 53° |
| 2026-05-05 12:38 | 4.31281 | 118.12106 | 45 ft | 22 kts | 58° |
| 2026-05-05 12:38 | 4.31367 | 118.12245 | 46 ft | 24 kts | 59° |
| 2026-05-05 12:39 | 4.31459 | 118.12391 | 47 ft | 25 kts | 57° |
| 2026-05-05 12:39 | 4.31553 | 118.12542 | 47 ft | 26 kts | 58° |
| 2026-05-05 12:39 | 4.31650 | 118.12700 | 48 ft | 27 kts | 58° |
| 2026-05-05 12:39 | 4.31751 | 118.12864 | 45 ft | 28 kts | 58° |
| 2026-05-05 12:40 | 4.31840 | 118.13007 | 45 ft | 21 kts | 58° |
| 2026-05-05 12:40 | 4.31903 | 118.13101 | 47 ft | 16 kts | 45° |
| 2026-05-05 12:40 | 4.31992 | 118.13162 | 46 ft | 13 kts | 64° |
| 2026-05-05 12:40 | 4.31972 | 118.13201 | 46 ft | 3 kts | 191° |
| 2026-05-05 12:41 | 4.31952 | 118.13186 | 46 ft | 3 kts | 225° |
| 2026-05-05 12:41 | 4.31948 | 118.13179 | 46 ft | 0 kts | 235° |
| 2026-05-05 12:41 | 4.31876 | 118.13066 | 47 ft | 57 kts | 238° |
| 2026-05-05 12:41 | 4.31535 | 118.12515 | 48 ft | 125 kts | 238° |
| 2026-05-05 12:42 | 4.30978 | 118.11617 | 125 ft | 170 kts | 238° |
| 2026-05-05 12:42 | 4.30320 | 118.10579 | 683 ft | 182 kts | 237° |
| 2026-05-05 12:42 | 4.29619 | 118.09504 | 1394 ft | 185 kts | 237° |
| 2026-05-05 12:42 | 4.29158 | 118.08765 | 1677 ft | 196 kts | 238° |
| 2026-05-05 12:43 | 4.29129 | 118.08718 | 1705 ft | 197 kts | 237° |
| 2026-05-05 12:44 | 4.28914 | 118.08344 | 1819 ft | 202 kts | 242° |
| 2026-05-05 12:45 | 4.28820 | 118.08155 | 1886 ft | 204 kts | 244° |
| 2026-05-05 12:47 | 4.28623 | 118.07675 | 2114 ft | 204 kts | 249° |
| 2026-05-05 12:47 | 4.27952 | 118.06329 | 2476 ft | 224 kts | 237° |
| 2026-05-05 12:47 | 4.27179 | 118.05187 | 2783 ft | 246 kts | 234° |
| 2026-05-05 12:48 | 4.26289 | 118.03945 | 3182 ft | 266 kts | 233° |
| 2026-05-05 12:48 | 4.25166 | 118.02401 | 3829 ft | 278 kts | 233° |
| 2026-05-05 12:48 | 4.24053 | 118.00818 | 4848 ft | 280 kts | 238° |
| 2026-05-05 12:49 | 4.23346 | 117.99005 | 5704 ft | 284 kts | 260° |
| 2026-05-05 12:49 | 4.23339 | 117.97026 | 6575 ft | 287 kts | 281° |
| 2026-05-05 12:49 | 4.24014 | 117.95135 | 7416 ft | 290 kts | 299° |
| 2026-05-05 12:49 | 4.25253 | 117.93534 | 8232 ft | 293 kts | 318° |
| 2026-05-05 12:50 | 4.26970 | 117.92418 | 9057 ft | 296 kts | 336° |
| 2026-05-05 12:50 | 4.28879 | 117.91639 | 9895 ft | 297 kts | 340° |
| 2026-05-05 12:50 | 4.30845 | 117.90905 | 10419 ft | 312 kts | 340° |
| 2026-05-05 12:50 | 4.32925 | 117.90073 | 10658 ft | 335 kts | 338° |
| 2026-05-05 12:51 | 4.35166 | 117.89130 | 10914 ft | 356 kts | 338° |
| 2026-05-05 12:51 | 4.37457 | 117.88144 | 11462 ft | 363 kts | 337° |
| 2026-05-05 12:51 | 4.38444 | 117.87717 | 11761 ft | 365 kts | 337° |
| 2026-05-05 12:52 | 4.39618 | 117.87210 | 12093 ft | 367 kts | 337° |
| 2026-05-05 12:52 | 4.41972 | 117.86193 | 12778 ft | 371 kts | 338° |
| 2026-05-05 12:53 | 4.44361 | 117.85169 | 13444 ft | 375 kts | 338° |
| 2026-05-05 12:53 | 4.46749 | 117.84151 | 14065 ft | 379 kts | 338° |
| 2026-05-05 12:53 | 4.49191 | 117.83114 | 14637 ft | 383 kts | 338° |
| 2026-05-05 12:53 | 4.51652 | 117.82073 | 15202 ft | 386 kts | 338° |
| 2026-05-05 12:54 | 4.56639 | 117.79903 | 16304 ft | 395 kts | 333° |
| 2026-05-05 12:54 | 4.58932 | 117.78385 | 16820 ft | 400 kts | 321° |
| 2026-05-05 12:54 | 4.60926 | 117.76407 | 17344 ft | 405 kts | 310° |
| 2026-05-05 12:55 | 4.62612 | 117.74129 | 17852 ft | 409 kts | 307° |
| 2026-05-05 12:55 | 4.64295 | 117.71805 | 18342 ft | 413 kts | 307° |
| 2026-05-05 12:55 | 4.65991 | 117.69472 | 18782 ft | 416 kts | 307° |
| 2026-05-05 12:55 | 4.67706 | 117.67121 | 19224 ft | 418 kts | 307° |
| 2026-05-05 12:56 | 4.69436 | 117.64748 | 19676 ft | 421 kts | 307° |
| 2026-05-05 12:56 | 4.71160 | 117.62378 | 20128 ft | 424 kts | 307° |
| 2026-05-05 12:56 | 4.72909 | 117.59973 | 20565 ft | 427 kts | 307° |
| 2026-05-05 12:56 | 4.74629 | 117.57606 | 20993 ft | 429 kts | 307° |
| 2026-05-05 12:57 | 4.76418 | 117.55140 | 21425 ft | 432 kts | 307° |
| 2026-05-05 12:57 | 4.78174 | 117.52723 | 21793 ft | 435 kts | 307° |
| 2026-05-05 12:57 | 4.79964 | 117.50293 | 21900 ft | 439 kts | 307° |
| 2026-05-05 12:57 | 4.81828 | 117.47799 | 21918 ft | 449 kts | 307° |
| 2026-05-05 12:58 | 4.83721 | 117.45282 | 21915 ft | 452 kts | 307° |
| 2026-05-05 12:58 | 4.84933 | 117.43671 | 21913 ft | 453 kts | 307° |
| 2026-05-05 12:58 | 4.86266 | 117.41910 | 21911 ft | 453 kts | 308° |
| 2026-05-05 12:58 | 4.88170 | 117.39379 | 21911 ft | 454 kts | 307° |
| 2026-05-05 12:59 | 4.90064 | 117.36842 | 21912 ft | 454 kts | 307° |
| 2026-05-05 12:59 | 4.91950 | 117.34305 | 21910 ft | 453 kts | 307° |
| 2026-05-05 12:59 | 4.93834 | 117.31769 | 21913 ft | 453 kts | 307° |
| 2026-05-05 13:00 | 4.97595 | 117.26702 | 21910 ft | 453 kts | 307° |
| 2026-05-05 13:00 | 4.99476 | 117.24167 | 21907 ft | 453 kts | 307° |
| 2026-05-05 13:01 | 5.03556 | 117.18685 | 21901 ft | 453 kts | 307° |
| 2026-05-05 13:01 | 5.05465 | 117.16126 | 21895 ft | 453 kts | 307° |
| 2026-05-05 13:01 | 5.07364 | 117.13583 | 21894 ft | 453 kts | 307° |
| 2026-05-05 13:01 | 5.09247 | 117.11061 | 21894 ft | 453 kts | 307° |
| 2026-05-05 13:02 | 5.11136 | 117.08528 | 21890 ft | 453 kts | 307° |
| 2026-05-05 13:02 | 5.12988 | 117.06035 | 21888 ft | 453 kts | 307° |
| 2026-05-05 13:02 | 5.14904 | 117.03453 | 21888 ft | 453 kts | 307° |
| 2026-05-05 13:02 | 5.16788 | 117.00920 | 21890 ft | 453 kts | 307° |
| 2026-05-05 13:03 | 5.18678 | 116.98383 | 21887 ft | 453 kts | 307° |
| 2026-05-05 13:03 | 5.20563 | 116.95851 | 21887 ft | 453 kts | 307° |
| 2026-05-05 13:03 | 5.22449 | 116.93315 | 21887 ft | 453 kts | 307° |
| 2026-05-05 13:03 | 5.24333 | 116.90784 | 21888 ft | 453 kts | 307° |
| 2026-05-05 13:04 | 5.26192 | 116.88285 | 21882 ft | 453 kts | 307° |
| 2026-05-05 13:04 | 5.28082 | 116.85742 | 21887 ft | 454 kts | 307° |
| 2026-05-05 13:04 | 5.29951 | 116.83228 | 21666 ft | 445 kts | 307° |
| 2026-05-05 13:04 | 5.31786 | 116.80756 | 21126 ft | 439 kts | 307° |
| 2026-05-05 13:05 | 5.33600 | 116.78312 | 20565 ft | 434 kts | 307° |
| 2026-05-05 13:05 | 5.35348 | 116.75959 | 20021 ft | 430 kts | 307° |
| 2026-05-05 13:05 | 5.37131 | 116.73562 | 19480 ft | 426 kts | 307° |
| 2026-05-05 13:05 | 5.38893 | 116.71195 | 18960 ft | 422 kts | 307° |
| 2026-05-05 13:06 | 5.40643 | 116.68841 | 18443 ft | 419 kts | 307° |
| 2026-05-05 13:06 | 5.42379 | 116.66506 | 17896 ft | 415 kts | 307° |
| 2026-05-05 13:06 | 5.44092 | 116.64200 | 17334 ft | 411 kts | 307° |
| 2026-05-05 13:06 | 5.45794 | 116.61903 | 16775 ft | 408 kts | 307° |
| 2026-05-05 13:07 | 5.47477 | 116.59632 | 16243 ft | 404 kts | 307° |
| 2026-05-05 13:07 | 5.48933 | 116.57231 | 15726 ft | 401 kts | 296° |
| 2026-05-05 13:07 | 5.49903 | 116.54616 | 15229 ft | 398 kts | 285° |
| 2026-05-05 13:07 | 5.50432 | 116.51897 | 14731 ft | 396 kts | 279° |
| 2026-05-05 13:08 | 5.50896 | 116.49192 | 14234 ft | 393 kts | 280° |
| 2026-05-05 13:08 | 5.51362 | 116.46486 | 13879 ft | 392 kts | 280° |
| 2026-05-05 13:08 | 5.51825 | 116.43816 | 13410 ft | 388 kts | 280° |
| 2026-05-05 13:08 | 5.52289 | 116.41154 | 12859 ft | 384 kts | 279° |
| 2026-05-05 13:09 | 5.52744 | 116.38534 | 12306 ft | 381 kts | 280° |
| 2026-05-05 13:09 | 5.53197 | 116.35930 | 11832 ft | 376 kts | 280° |
| 2026-05-05 13:09 | 5.53639 | 116.33388 | 11702 ft | 361 kts | 280° |
| 2026-05-05 13:09 | 5.54054 | 116.30987 | 11577 ft | 347 kts | 280° |
| 2026-05-05 13:10 | 5.54460 | 116.28646 | 11460 ft | 335 kts | 280° |
| 2026-05-05 13:10 | 5.54853 | 116.26365 | 11230 ft | 327 kts | 280° |
| 2026-05-05 13:10 | 5.55239 | 116.24121 | 10801 ft | 328 kts | 280° |
| 2026-05-05 13:10 | 5.55629 | 116.21845 | 10245 ft | 332 kts | 280° |
| 2026-05-05 13:11 | 5.56025 | 116.19550 | 9699 ft | 336 kts | 280° |
| 2026-05-05 13:11 | 5.56424 | 116.17228 | 9082 ft | 339 kts | 280° |
| 2026-05-05 13:11 | 5.56823 | 116.14899 | 8493 ft | 340 kts | 280° |
| 2026-05-05 13:11 | 5.57229 | 116.12547 | 7905 ft | 341 kts | 281° |
| 2026-05-05 13:12 | 5.57946 | 116.10280 | 7337 ft | 341 kts | 293° |
| 2026-05-05 13:12 | 5.58867 | 116.08111 | 7083 ft | 331 kts | 293° |
| 2026-05-05 13:12 | 5.59751 | 116.06020 | 6744 ft | 324 kts | 293° |
| 2026-05-05 13:12 | 5.60629 | 116.03937 | 6327 ft | 322 kts | 293° |
| 2026-05-05 13:13 | 5.61499 | 116.01875 | 5884 ft | 319 kts | 293° |
| 2026-05-05 13:13 | 5.62361 | 115.99831 | 5441 ft | 317 kts | 293° |
| 2026-05-05 13:13 | 5.63218 | 115.97799 | 5011 ft | 314 kts | 293° |
| 2026-05-05 13:13 | 5.64068 | 115.95794 | 4589 ft | 310 kts | 295° |
| 2026-05-05 13:14 | 5.65313 | 115.94071 | 4138 ft | 305 kts | 322° |
| 2026-05-05 13:14 | 5.67212 | 115.93269 | 3890 ft | 292 kts | 356° |
| 2026-05-05 13:14 | 5.69120 | 115.93580 | 3849 ft | 273 kts | 22° |
| 2026-05-05 13:14 | 5.70807 | 115.94439 | 3405 ft | 272 kts | 32° |
| 2026-05-05 13:15 | 5.72409 | 115.95444 | 2958 ft | 272 kts | 32° |
| 2026-05-05 13:15 | 5.74018 | 115.96413 | 2741 ft | 262 kts | 30° |
| 2026-05-05 13:15 | 5.75534 | 115.97284 | 2725 ft | 237 kts | 30° |
| 2026-05-05 13:15 | 5.76929 | 115.98010 | 2736 ft | 216 kts | 25° |
| 2026-05-05 13:16 | 5.78266 | 115.98596 | 2682 ft | 205 kts | 23° |
| 2026-05-05 13:16 | 5.79529 | 115.99129 | 2510 ft | 190 kts | 22° |
| 2026-05-05 13:16 | 5.80701 | 115.99624 | 2291 ft | 175 kts | 22° |
| 2026-05-05 13:16 | 5.81757 | 116.00069 | 2059 ft | 156 kts | 22° |
| 2026-05-05 13:17 | 5.82726 | 116.00478 | 1873 ft | 148 kts | 22° |
| 2026-05-05 13:17 | 5.83651 | 116.00868 | 1704 ft | 144 kts | 22° |
| 2026-05-05 13:17 | 5.84210 | 116.01104 | 1607 ft | 143 kts | 22° |
| 2026-05-05 13:17 | 5.84969 | 116.01424 | 1457 ft | 143 kts | 23° |
| 2026-05-05 13:18 | 5.85871 | 116.01805 | 1285 ft | 142 kts | 23° |
| 2026-05-05 13:18 | 5.86783 | 116.02190 | 1102 ft | 142 kts | 23° |
| 2026-05-05 13:18 | 5.87689 | 116.02572 | 924 ft | 141 kts | 23° |
| 2026-05-05 13:18 | 5.88599 | 116.02951 | 738 ft | 141 kts | 22° |
| 2026-05-05 13:19 | 5.89513 | 116.03288 | 552 ft | 140 kts | 22° |
| 2026-05-05 13:19 | 5.90407 | 116.03682 | 370 ft | 139 kts | 26° |
| 2026-05-05 13:19 | 5.91292 | 116.04079 | 202 ft | 139 kts | 24° |
| 2026-05-05 13:19 | 5.92178 | 116.04460 | 39 ft | 135 kts | 24° |
| 2026-05-05 13:20 | 5.92948 | 116.04789 | 29 ft | 92 kts | 22° |
| 2026-05-05 13:20 | 5.93255 | 116.04918 | 29 ft | 4 kts | 24° |
| 2026-05-05 13:20 | 5.93305 | 116.04940 | 29 ft | 15 kts | 24° |
| 2026-05-05 13:20 | 5.93441 | 116.04998 | 29 ft | 27 kts | 22° |
| 2026-05-05 13:21 | 5.93644 | 116.05084 | 29 ft | 35 kts | 23° |
| 2026-05-05 13:21 | 5.93703 | 116.05164 | 29 ft | 11 kts | 86° |
| 2026-05-05 13:21 | 5.93682 | 116.05228 | 29 ft | 9 kts | 136° |
| 2026-05-05 13:21 | 5.93630 | 116.05251 | 29 ft | 8 kts | 173° |
| 2026-05-05 13:22 | 5.93576 | 116.05245 | 29 ft | 10 kts | 193° |
| 2026-05-05 13:22 | 5.93495 | 116.05208 | 29 ft | 16 kts | 202° |
| 2026-05-05 13:22 | 5.93372 | 116.05157 | 29 ft | 22 kts | 203° |
| 2026-05-05 13:22 | 5.93220 | 116.05093 | 29 ft | 25 kts | 202° |
| 2026-05-05 13:23 | 5.93050 | 116.05020 | 29 ft | 27 kts | 202° |
| 2026-05-05 13:23 | 5.92898 | 116.04952 | 29 ft | 23 kts | 216° |
| 2026-05-05 13:23 | 5.92784 | 116.04907 | 29 ft | 15 kts | 202° |
| 2026-05-05 13:23 | 5.92701 | 116.04879 | 29 ft | 11 kts | 180° |
| 2026-05-05 13:24 | 5.92661 | 116.04923 | 29 ft | 8 kts | 106° |
| 2026-05-05 13:24 | 5.92634 | 116.04966 | 29 ft | 7 kts | 130° |
| 2026-05-05 13:24 | 5.92615 | 116.05002 | 29 ft | 5 kts | 113° |
| 2026-05-05 13:24 | 5.92602 | 116.05033 | 29 ft | 4 kts | 112° |
| 2026-05-05 13:25 | 5.92602 | 116.05034 | 29 ft | 0 kts | 112° |